Time;durP1;ratioP1;P1;durP2;ratioP2;P2;SDS_P1;SDS_P2;PMS_P1;PMS_P2;Temp;Humidity;BMP_temperature;BMP_pressure;BME280_temperature;BME280_humidity;BME280_pressure;Samples;Min_cycle;Max_cycle;Signal;HPM_P1;HPM_P2
2023/03/25 00:00:06;;;;;;;;;;;;;;;18.41;59.04;99648.61;2281000;77;50549;-73
2023/03/25 00:03:04;;;;;;;;;;;;;;;18.43;58.98;99645.22;2281278;77;22349;-72
2023/03/25 00:06:06;;;;;;;;;;;;;;;18.40;59.13;99645.64;2256185;77;49630;-74
2023/03/25 00:09:09;;;;;;;;;;;;;;;18.42;58.98;99646.27;2278943;77;50606;-72
2023/03/25 00:12:10;;;;;;;;;;;;;;;18.43;58.94;99649.76;2294147;77;50034;-72
2023/03/25 00:15:12;;;;;;;;;;;;;;;18.42;58.95;99642.73;2311751;77;50171;-72
2023/03/25 00:18:16;;;;;;;;;;;;;;;18.42;58.90;99638.23;2280640;77;49552;-73
2023/03/25 00:21:18;;;;;;;;;;;;;;;18.41;58.90;99640.58;2312089;77;51703;-73
2023/03/25 00:24:19;;;;;;;;;;;;;;;18.41;58.95;99635.74;2311874;77;50283;-76
2023/03/25 00:27:21;;;;;;;;;;;;;;;18.40;58.93;99623.39;2312140;77;51548;-73
2023/03/25 00:30:22;;;;;;;;;;;;;;;18.41;58.84;99629.86;2280855;77;52591;-73
2023/03/25 00:33:24;;;;;;;;;;;;;;;18.41;58.87;99625.84;2312425;77;50340;-74
2023/03/25 00:36:26;;;;;;;;;;;;;;;18.40;58.88;99626.07;2312250;77;51374;-73
2023/03/25 00:39:28;;;;;;;;;;;;;;;18.41;58.77;99629.86;2312771;77;51563;-73
2023/03/25 00:42:29;;;;;;;;;;;;;;;18.40;58.85;99630.09;2293569;77;49579;-73
2023/03/25 00:45:31;;;;;;;;;;;;;;;18.41;58.81;99640.58;2311928;77;50679;-73
2023/03/25 00:48:32;;;;;;;;;;;;;;;18.39;58.87;99638.61;2312287;77;50587;-72
2023/03/25 00:51:34;;;;;;;;;;;;;;;18.38;58.85;99638.31;2312386;77;50266;-73
2023/03/25 00:54:36;;;;;;;;;;;;;;;18.38;58.88;99640.18;2255975;77;51161;-73
2023/03/25 00:57:38;;;;;;;;;;;;;;;18.38;58.85;99639.66;2312384;77;51499;-72
2023/03/25 01:00:40;;;;;;;;;;;;;;;18.37;58.89;99647.39;2312369;77;50691;-74
2023/03/25 01:03:44;;;;;;;;;;;;;;;18.36;58.87;99639.03;2312151;75;50658;-72
2023/03/25 01:06:52;;;;;;;;;;;;;;;18.37;58.89;99654.09;2256738;77;51129;-73
2023/03/25 01:09:49;;;;;;;;;;;;;;;18.36;58.87;99644.39;2282297;76;22291;-72
2023/03/25 01:12:51;;;;;;;;;;;;;;;18.37;58.85;99640.70;2323204;75;51446;-73
2023/03/25 01:15:52;;;;;;;;;;;;;;;18.36;58.87;99643.57;2312258;77;52106;-72
2023/03/25 01:18:54;;;;;;;;;;;;;;;18.36;58.87;99643.05;2256241;75;50077;-73
2023/03/25 01:21:56;;;;;;;;;;;;;;;18.35;58.83;99641.41;2324085;76;50205;-72
2023/03/25 01:24:58;;;;;;;;;;;;;;;18.35;58.89;99637.40;2312147;77;50608;-73
2023/03/25 01:27:59;;;;;;;;;;;;;;;18.35;58.89;99626.69;2312544;77;50616;-72
2023/03/25 01:31:01;;;;;;;;;;;;;;;18.35;58.81;99630.70;2281224;77;52458;-72
2023/03/25 01:34:03;;;;;;;;;;;;;;;18.36;58.83;99617.61;2309327;77;50384;-73
2023/03/25 01:37:05;;;;;;;;;;;;;;;18.37;58.72;99618.42;2275830;77;50615;-73
2023/03/25 01:40:09;;;;;;;;;;;;;;;18.35;58.77;99608.45;2275670;77;50317;-75
2023/03/25 01:43:12;;;;;;;;;;;;;;;18.36;58.74;99609.57;2246369;78;22383;-73
2023/03/25 01:46:14;;;;;;;;;;;;;;;18.35;58.72;99603.92;2275709;78;50822;-73
2023/03/25 01:49:16;;;;;;;;;;;;;;;18.35;58.70;99601.24;2255329;77;49720;-74
2023/03/25 01:52:20;;;;;;;;;;;;;;;18.34;58.72;99603.63;2323768;76;50625;-74
2023/03/25 01:55:22;;;;;;;;;;;;;;;18.35;58.70;99600.42;2280315;77;51242;-75
2023/03/25 01:58:26;;;;;;;;;;;;;;;18.33;58.79;99603.30;2312084;77;51600;-75
2023/03/25 02:01:27;;;;;;;;;;;;;;;18.33;58.76;99598.46;2311983;77;50312;-74
2023/03/25 02:04:41;;;;;;;;;;;;;;;18.34;58.65;99606.80;2311836;76;51407;-74
2023/03/25 02:07:45;;;;;;;;;;;;;;;18.32;58.78;99603.52;2311895;77;51569;-74
2023/03/25 02:10:46;;;;;;;;;;;;;;;18.32;58.75;99594.15;2312424;76;22398;-73
2023/03/25 02:13:47;;;;;;;;;;;;;;;18.31;58.82;99591.96;2311880;77;50164;-73
2023/03/25 02:17:06;;;;;;;;;;;;;;;18.31;58.71;99583.92;2312063;77;49846;-74
2023/03/25 02:20:26;;;;;;;;;;;;;;;18.31;58.79;99581.25;2285280;76;52364;-74
2023/03/25 02:23:32;;;;;;;;;;;;;;;18.33;58.76;99578.38;2315335;76;50355;-74
2023/03/25 02:26:35;;;;;;;;;;;;;;;18.30;58.79;99580.95;2312114;77;51392;-74
2023/03/25 02:29:52;;;;;;;;;;;;;;;18.30;58.80;99571.58;2311518;75;51395;-73
2023/03/25 02:32:58;;;;;;;;;;;;;;;18.30;58.73;99570.24;2339257;75;51677;-73
2023/03/25 02:36:07;;;;;;;;;;;;;;;18.32;58.65;99560.67;2346792;76;50783;-73
2023/03/25 02:39:27;;;;;;;;;;;;;;;18.32;58.59;99561.49;2345611;76;51515;-74
2023/03/25 02:42:43;;;;;;;;;;;;;;;18.30;58.72;99556.86;2347871;75;50403;-75
2023/03/25 02:45:45;;;;;;;;;;;;;;;18.29;58.70;99555.22;2317984;76;50115;-73
2023/03/25 02:48:52;;;;;;;;;;;;;;;18.28;58.74;99549.02;2347857;76;50020;-73
2023/03/25 02:51:59;;;;;;;;;;;;;;;18.28;58.82;99547.67;2347490;76;51405;-73
2023/03/25 02:55:03;;;;;;;;;;;;;;;18.28;58.66;99550.36;2345969;76;50272;-73
2023/03/25 02:58:04;;;;;;;;;;;;;;;18.27;58.70;99550.06;2348266;75;22487;-73
2023/03/25 03:01:08;;;;;;;;;;;;;;;18.27;58.70;99540.69;2343803;74;51615;-73
2023/03/25 03:04:09;;;;;;;;;;;;;;;18.27;58.68;99531.84;2340767;76;22194;-72
2023/03/25 03:07:11;;;;;;;;;;;;;;;18.29;58.67;99536.47;2318648;76;49915;-72
2023/03/25 03:10:18;;;;;;;;;;;;;;;18.28;58.58;99538.83;2319914;76;50838;-72
2023/03/25 03:13:21;;;;;;;;;;;;;;;18.26;58.73;99528.83;2308296;76;49996;-72
2023/03/25 03:16:41;;;;;;;;;;;;;;;18.27;58.72;99535.86;2348727;76;50553;-72
2023/03/25 03:19:49;;;;;;;;;;;;;;;18.27;58.67;99530.50;2348305;76;51477;-72
2023/03/25 03:22:53;;;;;;;;;;;;;;;18.26;58.76;99529.68;2347572;76;22319;-72
2023/03/25 03:25:56;;;;;;;;;;;;;;;18.25;58.72;99536.05;2344995;75;23038;-73
2023/03/25 03:29:00;;;;;;;;;;;;;;;18.25;58.87;99543.27;2323027;76;50777;-72
2023/03/25 03:32:10;;;;;;;;;;;;;;;18.25;58.83;99540.59;2311543;76;50667;-73
2023/03/25 03:35:13;;;;;;;;;;;;;;;18.24;58.80;99549.14;2281287;77;52382;-73
2023/03/25 03:38:15;;;;;;;;;;;;;;;18.24;58.81;99547.80;2311828;76;51457;-74
2023/03/25 03:41:20;;;;;;;;;;;;;;;18.24;58.86;99559.84;2312517;76;50313;-74
2023/03/25 03:44:23;;;;;;;;;;;;;;;18.23;58.84;99559.52;2312383;77;51510;-73
2023/03/25 03:47:26;;;;;;;;;;;;;;;18.24;58.82;99551.82;2281305;77;52455;-73
2023/03/25 03:50:30;;;;;;;;;;;;;;;18.23;58.86;99550.67;2312518;77;51703;-72
2023/03/25 03:53:33;;;;;;;;;;;;;;;18.25;58.78;99551.30;2280734;77;51737;-74
2023/03/25 03:56:45;;;;;;;;;;;;;;;18.23;58.82;99553.35;2312444;77;51466;-72
2023/03/25 03:59:47;;;;;;;;;;;;;;;18.22;58.76;99557.07;2300606;77;22971;-73
2023/03/25 04:02:50;;;;;;;;;;;;;;;18.24;58.85;99545.13;2280314;77;51654;-72
2023/03/25 04:05:57;;;;;;;;;;;;;;;18.24;58.74;99546.47;2312562;75;51523;-73
2023/03/25 04:09:03;;;;;;;;;;;;;;;18.22;58.78;99538.33;2309778;75;51619;-73
2023/03/25 04:12:05;;;;;;;;;;;;;;;18.23;58.77;99546.14;2324579;76;22538;-74
2023/03/25 04:15:06;;;;;;;;;;;;;;;18.24;58.77;99545.64;2279374;77;51728;-73
2023/03/25 04:18:08;;;;;;;;;;;;;;;18.22;58.76;99545.02;2281292;77;50347;-73
2023/03/25 04:21:14;;;;;;;;;;;;;;;18.22;58.82;99542.34;2312539;77;49910;-74
2023/03/25 04:24:15;;;;;;;;;;;;;;;18.21;58.70;99546.03;2312074;76;22291;-73
2023/03/25 04:27:18;;;;;;;;;;;;;;;18.22;58.70;99544.50;2281994;77;22369;-73
2023/03/25 04:30:20;;;;;;;;;;;;;;;18.21;58.69;99545.55;2312367;75;50399;-72
2023/03/25 04:33:22;;;;;;;;;;;;;;;18.22;58.68;99541.01;2313112;76;52454;-72
2023/03/25 04:36:27;;;;;;;;;;;;;;;18.22;58.64;99547.70;2348057;76;50683;-73
2023/03/25 04:39:28;;;;;;;;;;;;;;;18.21;58.71;99551.39;2347958;76;22409;-72
2023/03/25 04:42:31;;;;;;;;;;;;;;;18.19;58.72;99547.60;2347809;76;50288;-73
2023/03/25 04:45:35;;;;;;;;;;;;;;;18.19;58.75;99550.28;2347703;74;51549;-72
2023/03/25 04:48:40;;;;;;;;;;;;;;;18.20;58.75;99557.79;2319203;76;24138;-72
2023/03/25 04:51:48;;;;;;;;;;;;;;;18.21;58.70;99552.73;2347661;76;22295;-72
2023/03/25 04:54:46;;;;;;;;;;;;;;;18.19;58.72;99540.09;2347072;75;22362;-72
2023/03/25 04:57:48;;;;;;;;;;;;;;;18.21;58.63;99542.02;2317967;76;50030;-72
2023/03/25 05:00:50;;;;;;;;;;;;;;;18.20;58.68;99536.37;2328434;76;51483;-72
2023/03/25 05:03:51;;;;;;;;;;;;;;;18.18;58.66;99534.41;2280973;77;52701;-74
2023/03/25 05:06:55;;;;;;;;;;;;;;;18.18;58.61;99544.59;2312667;75;51441;-74
2023/03/25 05:09:56;;;;;;;;;;;;;;;18.19;58.61;99548.12;2313181;75;22373;-73
2023/03/25 05:13:02;;;;;;;;;;;;;;;18.18;58.62;99543.25;2281785;77;51638;-74
2023/03/25 05:16:03;;;;;;;;;;;;;;;18.18;59.10;99535.75;2281489;77;51672;-73
2023/03/25 05:19:05;;;;;;;;;;;;;;;18.18;59.39;99531.73;2281723;77;50059;-72
2023/03/25 05:22:07;;;;;;;;;;;;;;;18.19;59.31;99540.09;2312312;77;51546;-74
2023/03/25 05:25:09;;;;;;;;;;;;;;;18.18;59.54;99529.05;2280635;77;50290;-74
2023/03/25 05:28:12;;;;;;;;;;;;;;;18.17;59.39;99536.79;2255932;77;51112;-74
2023/03/25 05:31:14;;;;;;;;;;;;;;;18.16;59.64;99540.48;2322653;76;51475;-73
2023/03/25 05:34:16;;;;;;;;;;;;;;;18.16;59.64;99539.98;2280268;77;52476;-74
2023/03/25 05:37:18;;;;;;;;;;;;;;;18.16;59.49;99529.77;2311981;77;50696;-73
2023/03/25 05:40:20;;;;;;;;;;;;;;;18.15;59.31;99532.97;2255996;77;51262;-74
2023/03/25 05:43:21;;;;;;;;;;;;;;;18.14;59.24;99538.03;2280565;77;51492;-74
2023/03/25 05:46:23;;;;;;;;;;;;;;;18.17;59.18;99530.09;2311899;77;51402;-74
2023/03/25 05:49:24;;;;;;;;;;;;;;;18.17;59.11;99532.77;2311883;77;51478;-75
2023/03/25 05:52:26;;;;;;;;;;;;;;;18.21;59.00;99537.52;2255867;77;52283;-75
2023/03/25 05:55:28;;;;;;;;;;;;;;;18.20;59.03;99540.39;2280304;77;51394;-73
2023/03/25 05:58:31;;;;;;;;;;;;;;;18.20;59.26;99548.42;2318760;75;51498;-75
2023/03/25 06:01:32;;;;;;;;;;;;;;;18.21;59.23;99558.94;2330470;76;50483;-75
2023/03/25 06:04:40;;;;;;;;;;;;;;;18.23;59.39;99561.39;2291732;76;51095;-71
2023/03/25 06:07:38;;;;;;;;;;;;;;;18.22;59.29;99553.88;2347149;75;22437;-70
2023/03/25 06:10:40;;;;;;;;;;;;;;;18.24;59.09;99563.05;2347163;75;51539;-70
2023/03/25 06:13:48;;;;;;;;;;;;;;;18.32;58.85;99566.84;2317443;76;51523;-72
2023/03/25 06:16:45;;;;;;;;;;;;;;;18.42;58.56;99567.25;2317367;76;22667;-71
2023/03/25 06:19:50;;;;;;;;;;;;;;;18.50;58.27;99568.88;2285558;77;51523;-71
2023/03/25 06:22:52;;;;;;;;;;;;;;;18.52;58.15;99572.16;2311868;77;52387;-71
2023/03/25 06:25:53;;;;;;;;;;;;;;;18.50;58.13;99576.40;2279685;77;51473;-71
2023/03/25 06:28:55;;;;;;;;;;;;;;;18.55;58.21;99578.95;2256077;77;52457;-72
2023/03/25 06:31:56;;;;;;;;;;;;;;;18.56;58.14;99582.77;2323569;76;51594;-72
2023/03/25 06:34:58;;;;;;;;;;;;;;;18.55;58.30;99585.65;2343711;76;51429;-72
2023/03/25 06:38:00;;;;;;;;;;;;;;;18.50;58.65;99587.11;2309618;76;51418;-72
2023/03/25 06:41:01;;;;;;;;;;;;;;;18.42;58.98;99584.66;2280621;77;51528;-73
2023/03/25 06:44:03;;;;;;;;;;;;;;;18.38;59.22;99575.90;2311653;77;50640;-71
2023/03/25 06:47:05;;;;;;;;;;;;;;;18.45;58.74;99580.74;2280852;77;50328;-72
2023/03/25 06:50:07;;;;;;;;;;;;;;;18.39;59.22;99586.91;2344202;76;51421;-72
2023/03/25 06:53:10;;;;;;;;;;;;;;;18.37;59.35;99580.44;2291739;76;52395;-72
2023/03/25 06:56:11;;;;;;;;;;;;;;;18.33;59.46;99577.86;2347235;74;50688;-72
2023/03/25 06:59:13;;;;;;;;;;;;;;;18.35;59.23;99571.78;2305700;76;51761;-71
2023/03/25 07:02:14;;;;;;;;;;;;;;;18.36;59.35;99569.40;2293629;77;52776;-70
2023/03/25 07:05:16;;;;;;;;;;;;;;;18.33;59.32;99568.48;2280263;75;50053;-71
2023/03/25 07:08:18;;;;;;;;;;;;;;;18.34;59.34;99575.50;2312251;75;51493;-70
2023/03/25 07:11:21;;;;;;;;;;;;;;;18.44;59.18;99570.52;2299979;76;51491;-71
2023/03/25 07:14:22;;;;;;;;;;;;;;;18.42;59.18;99583.81;2343537;75;51521;-71
2023/03/25 07:17:24;;;;;;;;;;;;;;;18.49;59.18;99585.45;2270010;77;50294;-72
2023/03/25 07:20:26;;;;;;;;;;;;;;;18.59;59.16;99585.55;2245265;78;52253;-72
2023/03/25 07:23:27;;;;;;;;;;;;;;;18.63;59.31;99590.81;2275338;78;51409;-71
2023/03/25 07:26:29;;;;;;;;;;;;;;;18.70;59.24;99599.64;2275155;78;50812;-72
2023/03/25 07:29:30;;;;;;;;;;;;;;;18.73;59.08;99593.88;2244985;78;52304;-71
2023/03/25 07:32:32;;;;;;;;;;;;;;;18.73;59.08;99591.20;2275458;78;52170;-71
2023/03/25 07:35:34;;;;;;;;;;;;;;;18.74;59.00;99591.50;2244793;78;52950;-72
2023/03/25 07:38:35;;;;;;;;;;;;;;;18.77;58.93;99591.63;2289951;75;50333;-73
2023/03/25 07:41:37;;;;;;;;;;;;;;;18.80;58.95;99600.58;2326128;75;51484;-71
2023/03/25 07:44:39;;;;;;;;;;;;;;;18.81;58.84;99600.91;2311763;77;51486;-71
2023/03/25 07:47:40;;;;;;;;;;;;;;;18.81;58.80;99592.34;2280817;77;50777;-72
2023/03/25 07:50:42;;;;;;;;;;;;;;;18.84;58.75;99603.98;2312120;77;50176;-70
2023/03/25 07:53:45;;;;;;;;;;;;;;;18.85;58.73;99600.25;2280340;77;52545;-70
2023/03/25 07:56:46;;;;;;;;;;;;;;;18.79;58.75;99602.44;2280971;77;50672;-73
2023/03/25 07:59:48;;;;;;;;;;;;;;;18.75;58.79;99606.56;2280648;77;51391;-71
2023/03/25 08:02:51;;;;;;;;;;;;;;;18.74;58.83;99608.91;2280809;77;51659;-72
2023/03/25 08:05:53;;;;;;;;;;;;;;;18.73;58.82;99608.62;2279739;75;50834;-71
2023/03/25 08:08:54;;;;;;;;;;;;;;;18.74;58.69;99607.58;2310613;77;50113;-72
2023/03/25 08:11:56;;;;;;;;;;;;;;;18.75;58.55;99600.36;2293662;77;50076;-72
2023/03/25 08:14:58;;;;;;;;;;;;;;;18.74;58.50;99600.88;2311926;77;50352;-71
2023/03/25 08:18:01;;;;;;;;;;;;;;;18.75;58.47;99601.69;2280596;77;52553;-73
2023/03/25 08:21:03;;;;;;;;;;;;;;;18.76;58.44;99602.05;2312059;76;50334;-71
2023/03/25 08:24:05;;;;;;;;;;;;;;;18.74;58.32;99594.18;2280643;77;50091;-72
2023/03/25 08:27:07;;;;;;;;;;;;;;;18.73;58.03;99600.58;2280783;77;50465;-72
2023/03/25 08:30:09;;;;;;;;;;;;;;;18.73;57.46;99596.56;2280685;77;52389;-72
2023/03/25 08:33:10;;;;;;;;;;;;;;;18.73;56.56;99597.91;2311715;77;50290;-72
2023/03/25 08:36:13;;;;;;;;;;;;;;;18.71;55.98;99602.12;2311866;77;50186;-72
2023/03/25 08:39:15;;;;;;;;;;;;;;;18.70;56.47;99606.33;2293320;75;51524;-71
2023/03/25 08:42:17;;;;;;;;;;;;;;;18.65;56.18;99600.78;2250781;77;52550;-72
2023/03/25 08:45:19;;;;;;;;;;;;;;;18.63;55.47;99593.48;2275104;77;51440;-71
2023/03/25 08:48:21;;;;;;;;;;;;;;;18.63;55.66;99597.51;2274621;78;51396;-73
2023/03/25 08:51:23;;;;;;;;;;;;;;;18.60;55.83;99591.20;2245167;78;50658;-72
2023/03/25 08:54:26;;;;;;;;;;;;;;;18.61;56.04;99591.53;2220900;78;52412;-73
2023/03/25 08:57:27;;;;;;;;;;;;;;;18.62;56.17;99594.50;2275667;78;51508;-72
2023/03/25 09:00:29;;;;;;;;;;;;;;;18.63;56.27;99596.17;2245255;78;51500;-73
2023/03/25 09:03:31;;;;;;;;;;;;;;;18.61;56.30;99582.97;2275230;78;50801;-74
2023/03/25 09:06:33;;;;;;;;;;;;;;;18.61;56.39;99596.89;2239858;77;52493;-76
2023/03/25 09:09:34;;;;;;;;;;;;;;;18.61;56.43;99598.23;2292282;77;51432;-75
2023/03/25 09:12:36;;;;;;;;;;;;;;;18.54;56.68;99594.73;2312243;77;50732;-76
2023/03/25 09:15:38;;;;;;;;;;;;;;;18.52;56.73;99588.23;2250773;77;51194;-74
2023/03/25 09:18:39;;;;;;;;;;;;;;;18.48;56.85;99593.19;2249487;77;52374;-74
2023/03/25 09:21:41;;;;;;;;;;;;;;;18.48;56.91;99596.39;2305822;76;50045;-74
2023/03/25 09:24:42;;;;;;;;;;;;;;;18.50;56.78;99592.47;2312770;75;50273;-74
2023/03/25 09:27:44;;;;;;;;;;;;;;;18.53;56.76;99588.55;2354001;75;50292;-75
2023/03/25 09:30:45;;;;;;;;;;;;;;;18.53;56.86;99587.73;2296225;75;49616;-75
2023/03/25 09:33:47;;;;;;;;;;;;;;;18.51;56.93;99591.95;2321385;75;50351;-74
2023/03/25 09:36:49;;;;;;;;;;;;;;;18.47;57.11;99592.89;2354244;75;51440;-73
2023/03/25 09:39:50;;;;;;;;;;;;;;;18.46;57.10;99598.45;2332142;74;51389;-73
2023/03/25 09:42:54;;;;;;;;;;;;;;;18.44;57.17;99599.16;2293205;75;51511;-74
2023/03/25 09:45:55;;;;;;;;;;;;;;;18.42;57.18;99602.56;2340932;76;50724;-76
2023/03/25 09:48:57;;;;;;;;;;;;;;;18.44;57.14;99605.86;2320429;76;51607;-74
2023/03/25 09:51:58;;;;;;;;;;;;;;;18.44;57.19;99608.54;2347846;75;52342;-74
2023/03/25 09:55:05;;;;;;;;;;;;;;;18.43;57.23;99605.05;2317937;76;51001;-74
2023/03/25 09:58:26;;;;;;;;;;;;;;;18.46;57.15;99606.48;2350202;76;51631;-74
2023/03/25 10:01:46;;;;;;;;;;;;;;;18.47;57.08;99599.59;2347719;76;50633;-73
2023/03/25 10:04:49;;;;;;;;;;;;;;;18.48;57.04;99597.73;2347976;76;51582;-74
2023/03/25 10:08:01;;;;;;;;;;;;;;;18.48;57.08;99600.41;2318550;76;51326;-73
2023/03/25 10:11:05;;;;;;;;;;;;;;;18.49;57.04;99601.52;2330408;75;50455;-74
2023/03/25 10:14:14;;;;;;;;;;;;;;;18.49;57.09;99592.14;2341657;75;51250;-74
2023/03/25 10:17:17;;;;;;;;;;;;;;;18.48;57.18;99593.19;2299290;77;51613;-71
2023/03/25 10:20:19;;;;;;;;;;;;;;;18.44;57.59;99593.28;2281008;77;52546;-71
2023/03/25 10:23:25;;;;;;;;;;;;;;;18.45;57.44;99594.95;2312174;76;50145;-73
2023/03/25 10:26:29;;;;;;;;;;;;;;;18.42;57.58;99586.48;2320975;75;50696;-72
2023/03/25 10:29:32;;;;;;;;;;;;;;;18.41;58.18;99584.85;2336778;75;52109;-73
2023/03/25 10:32:45;;;;;;;;;;;;;;;18.43;58.20;99590.31;2296531;75;51054;-74
2023/03/25 10:35:47;;;;;;;;;;;;;;;18.44;57.70;99583.91;2304463;77;50630;-73
2023/03/25 10:38:51;;;;;;;;;;;;;;;18.45;57.56;99578.88;2327983;75;51500;-73
2023/03/25 10:41:57;;;;;;;;;;;;;;;18.47;57.63;99592.89;2336867;75;50700;-74
2023/03/25 10:44:59;;;;;;;;;;;;;;;18.46;57.63;99587.21;2315740;76;51786;-75
2023/03/25 10:48:11;;;;;;;;;;;;;;;18.49;57.83;99585.45;2338532;76;50679;-73
2023/03/25 10:51:16;;;;;;;;;;;;;;;18.53;57.53;99583.72;2346613;76;51414;-75
2023/03/25 10:54:18;;;;;;;;;;;;;;;18.50;57.44;99587.11;2347129;75;50705;-73
2023/03/25 10:57:27;;;;;;;;;;;;;;;18.47;57.60;99587.54;2317743;76;52397;-74
2023/03/25 11:00:29;;;;;;;;;;;;;;;18.45;57.62;99581.56;2346198;76;50294;-75
2023/03/25 11:03:33;;;;;;;;;;;;;;;18.47;57.64;99589.37;2347167;76;51537;-75
2023/03/25 11:06:36;;;;;;;;;;;;;;;18.47;57.56;99576.83;2346576;75;50689;-74
2023/03/25 11:09:37;;;;;;;;;;;;;;;18.49;57.52;99570.72;2317768;76;52520;-74
2023/03/25 11:12:44;;;;;;;;;;;;;;;18.49;57.49;99570.72;2347600;76;51498;-75
2023/03/25 11:15:43;;;;;;;;;;;;;;;18.50;57.43;99571.05;2335359;76;22395;-74
2023/03/25 11:18:47;;;;;;;;;;;;;;;18.50;57.63;99564.34;2322767;75;51429;-74
2023/03/25 11:21:48;;;;;;;;;;;;;;;18.46;58.11;99563.10;2319057;74;22493;-75
2023/03/25 11:24:53;;;;;;;;;;;;;;;18.45;58.35;99568.69;2311713;77;51433;-75
2023/03/25 11:27:55;;;;;;;;;;;;;;;18.43;58.74;99562.19;2312142;77;22427;-75
2023/03/25 11:31:11;;;;;;;;;;;;;;;18.44;58.58;99563.00;2317505;75;50411;-75
2023/03/25 11:34:14;;;;;;;;;;;;;;;18.47;58.44;99558.56;2195939;80;49634;-74
2023/03/25 11:37:17;;;;;;;;;;;;;;;18.45;58.99;99551.28;2220542;80;50304;-75
2023/03/25 11:40:19;;;;;;;;;;;;;;;18.45;58.37;99553.95;2243919;78;50555;-75
2023/03/25 11:43:21;;;;;;;;;;;;;;;18.44;58.34;99553.11;2229575;77;51591;-75
2023/03/25 11:46:23;;;;;;;;;;;;;;;18.46;58.13;99550.23;2214587;78;51796;-75
2023/03/25 11:49:25;;;;;;;;;;;;;;;18.43;58.27;99556.83;2220147;80;50161;-74
2023/03/25 11:52:27;;;;;;;;;;;;;;;18.47;58.06;99558.56;2220105;80;51766;-72
2023/03/25 11:55:30;;;;;;;;;;;;;;;18.49;57.97;99568.04;2203968;78;50671;-74
2023/03/25 11:58:33;;;;;;;;;;;;;;;18.53;57.86;99547.55;2231781;78;51819;-75
2023/03/25 12:01:42;;;;;;;;;;;;;;;18.53;57.87;99552.39;2235545;78;50445;-75
2023/03/25 12:04:57;;;;;;;;;;;;;;;18.51;57.92;99550.43;2220010;80;51337;-75
2023/03/25 12:08:03;;;;;;;;;;;;;;;18.48;57.98;99534.78;2220024;80;50129;-74
2023/03/25 12:11:05;;;;;;;;;;;;;;;18.49;57.96;99534.55;2267435;77;50920;-74
2023/03/25 12:14:08;;;;;;;;;;;;;;;18.48;58.02;99529.42;2311558;77;51525;-74
2023/03/25 12:17:12;;;;;;;;;;;;;;;18.47;58.06;99531.28;2332465;74;51616;-75
2023/03/25 12:20:15;;;;;;;;;;;;;;;18.52;58.03;99535.99;2296729;75;52383;-74
2023/03/25 12:23:24;;;;;;;;;;;;;;;18.53;58.14;99516.22;2316884;75;51015;-73
2023/03/25 12:26:33;;;;;;;;;;;;;;;18.60;58.02;99521.55;2354009;75;51515;-75
2023/03/25 12:29:53;;;;;;;;;;;;;;;18.58;58.39;99518.28;2326970;75;50288;-73
2023/03/25 12:33:13;;;;;;;;;;;;;;;18.49;58.62;99513.13;2301756;77;51526;-72
2023/03/25 12:36:19;;;;;;;;;;;;;;;18.46;58.89;99519.43;2281864;77;50206;-73
2023/03/25 12:39:26;;;;;;;;;;;;;;;18.45;59.00;99513.26;2312259;75;50696;-72
2023/03/25 12:42:32;;;;;;;;;;;;;;;18.44;59.12;99524.17;2311755;76;50391;-73
2023/03/25 12:45:48;;;;;;;;;;;;;;;18.48;58.97;99516.84;2347140;76;50358;-72
2023/03/25 12:48:51;;;;;;;;;;;;;;;18.49;58.87;99502.41;2317654;76;52633;-74
2023/03/25 12:51:57;;;;;;;;;;;;;;;18.53;58.87;99499.34;2322539;74;50364;-73
2023/03/25 12:55:00;;;;;;;;;;;;;;;18.58;58.77;99499.53;2313381;75;51456;-73
2023/03/25 12:58:03;;;;;;;;;;;;;;;18.61;58.46;99485.70;2327312;76;50265;-74
2023/03/25 13:01:07;;;;;;;;;;;;;;;18.62;58.32;99491.36;2317523;76;51213;-72
2023/03/25 13:04:16;;;;;;;;;;;;;;;18.65;58.14;99481.05;2302194;77;50441;-73
2023/03/25 13:07:18;;;;;;;;;;;;;;;18.68;58.09;99485.17;2313160;76;51457;-73
2023/03/25 13:10:20;;;;;;;;;;;;;;;18.67;58.08;99482.98;2319095;75;50456;-73
2023/03/25 13:13:23;;;;;;;;;;;;;;;18.62;58.21;99473.94;2260309;77;52598;-71
2023/03/25 13:16:26;;;;;;;;;;;;;;;18.55;58.29;99473.13;2311842;77;52451;-71
2023/03/25 13:19:28;;;;;;;;;;;;;;;18.48;58.69;99483.37;2311947;75;50694;-73
2023/03/25 13:22:35;;;;;;;;;;;;;;;18.49;58.63;99509.62;2344284;76;50276;-74
2023/03/25 13:25:38;;;;;;;;;;;;;;;18.46;58.65;99512.21;2292847;76;52613;-75
2023/03/25 13:28:42;;;;;;;;;;;;;;;18.45;58.55;99507.09;2337281;76;50676;-73
2023/03/25 13:31:45;;;;;;;;;;;;;;;18.47;58.59;99507.67;2312903;77;51664;-75
2023/03/25 13:34:51;;;;;;;;;;;;;;;18.44;58.53;99506.23;2313467;77;51530;-74
2023/03/25 13:37:54;;;;;;;;;;;;;;;18.45;58.49;99525.83;2312556;77;51691;-75
2023/03/25 13:41:00;;;;;;;;;;;;;;;18.46;58.34;99551.05;2313887;77;50684;-75
2023/03/25 13:44:03;;;;;;;;;;;;;;;18.44;58.29;99515.61;2313576;77;51483;-75
2023/03/25 13:47:07;;;;;;;;;;;;;;;18.44;58.26;99526.33;2310151;76;50149;-74
2023/03/25 13:50:25;;;;;;;;;;;;;;;18.45;58.22;99519.13;2313725;77;51461;-74
2023/03/25 13:53:32;;;;;;;;;;;;;;;18.43;58.22;99531.91;2313558;77;51557;-74
2023/03/25 13:56:35;;;;;;;;;;;;;;;18.43;58.17;99534.59;2323086;76;50696;-74
2023/03/25 13:59:47;;;;;;;;;;;;;;;18.43;58.14;99538.60;2311939;77;50679;-75
2023/03/25 14:02:57;;;;;;;;;;;;;;;18.42;58.13;99539.13;2280563;77;52346;-75
2023/03/25 14:06:03;;;;;;;;;;;;;;;18.41;58.13;99542.81;2311309;76;49890;-74
2023/03/25 14:09:21;;;;;;;;;;;;;;;18.43;58.07;99544.78;2304679;75;53174;-73
2023/03/25 14:12:25;;;;;;;;;;;;;;;18.45;57.94;99542.72;2312072;77;51526;-73
2023/03/25 14:15:27;;;;;;;;;;;;;;;18.47;57.92;99542.49;2280738;77;51827;-74
2023/03/25 14:18:30;;;;;;;;;;;;;;;18.46;57.92;99530.14;2312008;77;50325;-74
2023/03/25 14:21:39;;;;;;;;;;;;;;;18.46;57.92;99527.47;2311865;77;51364;-74
2023/03/25 14:24:41;;;;;;;;;;;;;;;18.46;57.94;99518.09;2311576;77;50391;-73
2023/03/25 14:27:44;;;;;;;;;;;;;;;18.44;57.99;99526.33;2293269;76;50502;-74
2023/03/25 14:30:48;;;;;;;;;;;;;;;18.44;57.93;99527.66;2311957;77;50315;-75
2023/03/25 14:34:03;;;;;;;;;;;;;;;18.47;57.86;99517.89;2307409;76;51488;-74
2023/03/25 14:37:09;;;;;;;;;;;;;;;18.47;57.84;99513.87;2311965;77;51609;-76
2023/03/25 14:40:19;;;;;;;;;;;;;;;18.47;57.81;99517.89;2280619;77;51735;-72
2023/03/25 14:43:22;;;;;;;;;;;;;;;18.46;57.80;99526.95;2299055;76;51510;-73
2023/03/25 14:46:24;;;;;;;;;;;;;;;18.46;57.84;99510.88;2311880;77;51466;-73
2023/03/25 14:49:29;;;;;;;;;;;;;;;18.46;57.81;99509.53;2311935;77;50705;-74
2023/03/25 14:52:29;;;;;;;;;;;;;;;;;;2281395;77;23091;-74
2023/03/25 14:55:44;;;;;;;;;;;;;;;18.47;57.76;99496.95;2320846;76;50385;-74
2023/03/25 14:58:45;;;;;;;;;;;;;;;18.47;57.75;99491.11;2281195;77;52491;-74
2023/03/25 15:01:47;;;;;;;;;;;;;;;18.45;57.75;99492.35;2312114;77;50568;-74
2023/03/25 15:04:56;;;;;;;;;;;;;;;18.45;57.74;99497.70;2280366;77;51723;-74
2023/03/25 15:08:08;;;;;;;;;;;;;;;18.47;57.69;99494.28;2312295;77;51526;-76
2023/03/25 15:11:14;;;;;;;;;;;;;;;18.47;57.68;99487.09;2312143;75;51758;-75
2023/03/25 15:14:18;;;;;;;;;;;;;;;18.45;57.77;99478.96;2312242;77;51540;-75
2023/03/25 15:17:33;;;;;;;;;;;;;;;18.45;57.88;99482.45;2281067;77;51561;-76
2023/03/25 15:20:35;;;;;;;;;;;;;;;18.45;57.86;99481.12;2220268;79;51618;-76
2023/03/25 15:23:46;;;;;;;;;;;;;;;18.44;57.99;99483.47;2220377;80;50790;-76
2023/03/25 15:26:48;;;;;;;;;;;;;;;18.43;57.96;99476.48;2225626;78;50670;-75
2023/03/25 15:29:53;;;;;;;;;;;;;;;18.45;57.93;99474.42;2241643;78;51201;-75
2023/03/25 15:33:06;;;;;;;;;;;;;;;18.45;57.97;99471.73;2266588;78;50323;-75
2023/03/25 15:36:21;;;;;;;;;;;;;;;18.48;57.87;99474.52;2246080;78;51926;-75
2023/03/25 15:39:28;;;;;;;;;;;;;;;18.51;57.86;99466.05;2266453;77;51670;-75
2023/03/25 15:42:33;;;;;;;;;;;;;;;18.50;57.80;99458.53;2241732;78;52656;-75
2023/03/25 15:45:53;;;;;;;;;;;;;;;18.50;57.86;99469.78;2266365;77;50310;-75
2023/03/25 15:49:01;;;;;;;;;;;;;;;18.52;57.88;99478.92;2266524;77;51551;-75
2023/03/25 15:52:07;;;;;;;;;;;;;;;18.49;57.91;99470.79;2266345;78;51642;-75
2023/03/25 15:55:09;;;;;;;;;;;;;;;18.47;57.88;99465.66;2256061;76;50818;-74
2023/03/25 15:58:12;;;;;;;;;;;;;;;18.46;57.93;99463.18;2318828;76;50401;-74